Maanti, Mongolia
Current Conditions -  °F | °C
As of 12:00 AM on Friday 31 Oct 2014 (Local Time) from ZMUB Reporting Station
Broken Clouds Broken Clouds  
Wind Chill: 20°   Ceiling: 10000
Heat Index: 30°   Visibility: 6mi
Dew Point: 18°   Wind: 13mph
Humidity: 60%   Direction: 150°SSE
Pressure: 30.09"   Gusts: NA
Location:  47.3°N, 107.48°E
Report Text: ZMUB 301600Z 15006MPS 9999 BKN100 M01/M08 Q1019 NOSIG RMK QFE656.5 54 NT
Loading
Personal Weather Stations






























Interactive Weather Map
Tropical Storm Tracking
New forecast layout! Learn more

10-Day Weather Forecast

Advertisements
Track Severe Weather on mobile